sensor_id;sensor_type;location;lat;lon;timestamp;P1;durP1;ratioP1;P2;durP2;ratioP2
72929;SDS011;61073;54.260;20.816;2023-03-05T00:00:00;11.48;;;4.88;;
72929;SDS011;61073;54.260;20.816;2023-03-05T00:02:27;12.02;;;4.40;;
72929;SDS011;61073;54.260;20.816;2023-03-05T00:04:54;9.63;;;4.78;;
72929;SDS011;61073;54.260;20.816;2023-03-05T00:07:21;7.90;;;3.25;;
72929;SDS011;61073;54.260;20.816;2023-03-05T00:09:48;4.40;;;2.00;;
72929;SDS011;61073;54.260;20.816;2023-03-05T00:12:15;5.43;;;1.75;;
72929;SDS011;61073;54.260;20.816;2023-03-05T00:14:43;5.10;;;1.48;;
72929;SDS011;61073;54.260;20.816;2023-03-05T00:17:10;7.22;;;1.90;;
72929;SDS011;61073;54.260;20.816;2023-03-05T00:19:37;4.15;;;1.75;;
72929;SDS011;61073;54.260;20.816;2023-03-05T00:22:04;5.50;;;1.48;;
72929;SDS011;61073;54.260;20.816;2023-03-05T00:26:58;4.15;;;2.17;;
72929;SDS011;61073;54.260;20.816;2023-03-05T00:29:25;7.43;;;2.20;;
72929;SDS011;61073;54.260;20.816;2023-03-05T00:31:56;5.82;;;2.03;;
72929;SDS011;61073;54.260;20.816;2023-03-05T00:34:23;4.35;;;1.70;;
72929;SDS011;61073;54.260;20.816;2023-03-05T00:36:51;4.95;;;1.83;;
72929;SDS011;61073;54.260;20.816;2023-03-05T00:39:18;6.45;;;2.28;;
72929;SDS011;61073;54.260;20.816;2023-03-05T00:41:46;5.97;;;1.60;;
72929;SDS011;61073;54.260;20.816;2023-03-05T00:44:13;4.30;;;2.00;;
72929;SDS011;61073;54.260;20.816;2023-03-05T00:46:40;7.47;;;1.83;;
72929;SDS011;61073;54.260;20.816;2023-03-05T00:49:07;4.78;;;1.77;;
72929;SDS011;61073;54.260;20.816;2023-03-05T00:51:34;4.38;;;1.45;;
72929;SDS011;61073;54.260;20.816;2023-03-05T00:54:02;6.15;;;1.75;;
72929;SDS011;61073;54.260;20.816;2023-03-05T00:56:29;2.35;;;1.38;;
72929;SDS011;61073;54.260;20.816;2023-03-05T00:58:57;3.22;;;2.08;;
72929;SDS011;61073;54.260;20.816;2023-03-05T01:01:24;10.05;;;3.17;;
72929;SDS011;61073;54.260;20.816;2023-03-05T01:03:51;6.25;;;2.22;;
72929;SDS011;61073;54.260;20.816;2023-03-05T01:06:21;4.40;;;2.22;;
72929;SDS011;61073;54.260;20.816;2023-03-05T01:08:49;4.47;;;2.53;;
72929;SDS011;61073;54.260;20.816;2023-03-05T01:11:16;8.23;;;2.05;;
72929;SDS011;61073;54.260;20.816;2023-03-05T01:13:43;7.40;;;2.45;;
72929;SDS011;61073;54.260;20.816;2023-03-05T01:16:10;9.15;;;1.88;;
72929;SDS011;61073;54.260;20.816;2023-03-05T01:18:39;8.73;;;3.25;;
72929;SDS011;61073;54.260;20.816;2023-03-05T01:21:06;11.43;;;2.92;;
72929;SDS011;61073;54.260;20.816;2023-03-05T01:23:33;6.25;;;2.83;;
72929;SDS011;61073;54.260;20.816;2023-03-05T01:26:02;5.45;;;2.05;;
72929;SDS011;61073;54.260;20.816;2023-03-05T01:28:29;5.63;;;1.80;;
72929;SDS011;61073;54.260;20.816;2023-03-05T01:30:57;4.97;;;2.10;;
72929;SDS011;61073;54.260;20.816;2023-03-05T01:33:24;10.10;;;2.67;;
72929;SDS011;61073;54.260;20.816;2023-03-05T01:35:52;3.28;;;1.95;;
72929;SDS011;61073;54.260;20.816;2023-03-05T01:38:20;5.28;;;2.65;;
72929;SDS011;61073;54.260;20.816;2023-03-05T01:48:08;4.22;;;2.30;;
72929;SDS011;61073;54.260;20.816;2023-03-05T01:50:35;6.28;;;1.88;;
72929;SDS011;61073;54.260;20.816;2023-03-05T01:53:03;6.40;;;2.95;;
72929;SDS011;61073;54.260;20.816;2023-03-05T01:55:32;5.80;;;2.63;;
72929;SDS011;61073;54.260;20.816;2023-03-05T01:58:03;1.92;;;1.45;;
72929;SDS011;61073;54.260;20.816;2023-03-05T02:00:37;9.60;;;2.00;;
72929;SDS011;61073;54.260;20.816;2023-03-05T02:03:06;4.20;;;2.17;;
72929;SDS011;61073;54.260;20.816;2023-03-05T02:05:35;4.88;;;2.45;;
72929;SDS011;61073;54.260;20.816;2023-03-05T02:08:04;5.10;;;1.98;;
72929;SDS011;61073;54.260;20.816;2023-03-05T02:10:33;6.00;;;2.33;;
72929;SDS011;61073;54.260;20.816;2023-03-05T02:13:01;10.60;;;2.75;;
72929;SDS011;61073;54.260;20.816;2023-03-05T02:15:29;4.68;;;2.03;;
72929;SDS011;61073;54.260;20.816;2023-03-05T02:17:56;5.95;;;2.65;;
72929;SDS011;61073;54.260;20.816;2023-03-05T02:22:50;4.70;;;2.38;;
72929;SDS011;61073;54.260;20.816;2023-03-05T02:27:53;6.70;;;2.53;;
72929;SDS011;61073;54.260;20.816;2023-03-05T02:30:21;5.65;;;2.45;;
72929;SDS011;61073;54.260;20.816;2023-03-05T02:32:48;6.07;;;2.38;;
72929;SDS011;61073;54.260;20.816;2023-03-05T02:35:15;6.90;;;2.95;;
72929;SDS011;61073;54.260;20.816;2023-03-05T02:37:42;7.00;;;3.25;;
72929;SDS011;61073;54.260;20.816;2023-03-05T02:40:10;10.35;;;2.85;;
72929;SDS011;61073;54.260;20.816;2023-03-05T02:42:39;7.68;;;2.40;;
72929;SDS011;61073;54.260;20.816;2023-03-05T02:45:06;9.45;;;2.80;;
72929;SDS011;61073;54.260;20.816;2023-03-05T02:47:33;4.80;;;2.03;;
72929;SDS011;61073;54.260;20.816;2023-03-05T02:50:00;5.22;;;2.50;;
72929;SDS011;61073;54.260;20.816;2023-03-05T02:52:28;6.15;;;2.33;;
72929;SDS011;61073;54.260;20.816;2023-03-05T02:54:56;11.02;;;2.53;;
72929;SDS011;61073;54.260;20.816;2023-03-05T02:57:24;4.65;;;2.33;;
72929;SDS011;61073;54.260;20.816;2023-03-05T02:59:51;4.72;;;2.30;;
72929;SDS011;61073;54.260;20.816;2023-03-05T03:02:18;6.75;;;2.55;;
72929;SDS011;61073;54.260;20.816;2023-03-05T03:04:46;5.07;;;2.55;;
72929;SDS011;61073;54.260;20.816;2023-03-05T03:07:13;4.57;;;2.33;;
72929;SDS011;61073;54.260;20.816;2023-03-05T03:09:41;9.35;;;2.80;;
72929;SDS011;61073;54.260;20.816;2023-03-05T03:12:09;8.75;;;2.55;;
72929;SDS011;61073;54.260;20.816;2023-03-05T03:14:38;6.13;;;2.50;;
72929;SDS011;61073;54.260;20.816;2023-03-05T03:17:06;4.53;;;2.20;;
72929;SDS011;61073;54.260;20.816;2023-03-05T03:19:34;7.35;;;1.90;;
72929;SDS011;61073;54.260;20.816;2023-03-05T03:22:01;7.07;;;2.25;;
72929;SDS011;61073;54.260;20.816;2023-03-05T03:24:29;5.85;;;2.17;;
72929;SDS011;61073;54.260;20.816;2023-03-05T03:26:56;3.85;;;2.28;;
72929;SDS011;61073;54.260;20.816;2023-03-05T03:29:23;3.13;;;1.63;;
72929;SDS011;61073;54.260;20.816;2023-03-05T03:31:50;5.72;;;2.30;;
72929;SDS011;61073;54.260;20.816;2023-03-05T03:34:22;5.60;;;2.08;;
72929;SDS011;61073;54.260;20.816;2023-03-05T03:36:50;4.80;;;1.40;;
72929;SDS011;61073;54.260;20.816;2023-03-05T03:39:18;5.88;;;2.28;;
72929;SDS011;61073;54.260;20.816;2023-03-05T03:41:46;7.72;;;2.50;;
72929;SDS011;61073;54.260;20.816;2023-03-05T03:44:13;4.78;;;2.10;;
72929;SDS011;61073;54.260;20.816;2023-03-05T03:46:42;5.40;;;2.00;;
72929;SDS011;61073;54.260;20.816;2023-03-05T03:49:18;6.35;;;2.08;;
72929;SDS011;61073;54.260;20.816;2023-03-05T03:51:46;6.55;;;2.63;;
72929;SDS011;61073;54.260;20.816;2023-03-05T03:54:14;5.68;;;2.33;;
72929;SDS011;61073;54.260;20.816;2023-03-05T03:56:41;3.63;;;1.83;;
72929;SDS011;61073;54.260;20.816;2023-03-05T03:59:09;4.18;;;1.95;;
72929;SDS011;61073;54.260;20.816;2023-03-05T04:01:36;6.13;;;2.20;;
72929;SDS011;61073;54.260;20.816;2023-03-05T04:04:03;3.55;;;1.92;;
72929;SDS011;61073;54.260;20.816;2023-03-05T04:06:31;6.65;;;2.35;;
72929;SDS011;61073;54.260;20.816;2023-03-05T04:08:58;5.65;;;2.03;;
72929;SDS011;61073;54.260;20.816;2023-03-05T04:11:25;4.25;;;1.95;;
72929;SDS011;61073;54.260;20.816;2023-03-05T04:18:46;5.22;;;2.08;;
72929;SDS011;61073;54.260;20.816;2023-03-05T04:21:13;4.88;;;2.30;;
72929;SDS011;61073;54.260;20.816;2023-03-05T04:23:41;2.83;;;1.80;;
72929;SDS011;61073;54.260;20.816;2023-03-05T04:26:08;5.85;;;2.17;;
72929;SDS011;61073;54.260;20.816;2023-03-05T04:28:36;4.82;;;2.05;;
72929;SDS011;61073;54.260;20.816;2023-03-05T04:31:03;4.68;;;1.73;;
72929;SDS011;61073;54.260;20.816;2023-03-05T04:33:31;6.72;;;1.92;;
72929;SDS011;61073;54.260;20.816;2023-03-05T04:38:25;5.40;;;1.40;;
72929;SDS011;61073;54.260;20.816;2023-03-05T04:43:19;7.88;;;1.42;;
72929;SDS011;61073;54.260;20.816;2023-03-05T04:45:47;2.65;;;1.90;;
72929;SDS011;61073;54.260;20.816;2023-03-05T04:48:14;1.98;;;1.40;;
72929;SDS011;61073;54.260;20.816;2023-03-05T04:50:42;2.03;;;1.27;;
72929;SDS011;61073;54.260;20.816;2023-03-05T04:53:09;5.78;;;1.45;;
72929;SDS011;61073;54.260;20.816;2023-03-05T04:55:36;3.38;;;1.58;;
72929;SDS011;61073;54.260;20.816;2023-03-05T05:00:30;2.53;;;1.45;;
72929;SDS011;61073;54.260;20.816;2023-03-05T05:02:57;2.70;;;1.55;;
72929;SDS011;61073;54.260;20.816;2023-03-05T05:05:25;3.97;;;1.70;;
72929;SDS011;61073;54.260;20.816;2023-03-05T05:07:53;6.93;;;1.40;;
72929;SDS011;61073;54.260;20.816;2023-03-05T05:10:21;2.08;;;1.48;;
72929;SDS011;61073;54.260;20.816;2023-03-05T05:12:48;5.10;;;1.80;;
72929;SDS011;61073;54.260;20.816;2023-03-05T05:15:15;5.97;;;2.05;;
72929;SDS011;61073;54.260;20.816;2023-03-05T05:17:42;6.85;;;1.75;;
72929;SDS011;61073;54.260;20.816;2023-03-05T05:20:10;4.63;;;2.10;;
72929;SDS011;61073;54.260;20.816;2023-03-05T05:22:38;2.95;;;1.60;;
72929;SDS011;61073;54.260;20.816;2023-03-05T05:25:05;9.48;;;1.90;;
72929;SDS011;61073;54.260;20.816;2023-03-05T05:27:33;6.22;;;1.60;;
72929;SDS011;61073;54.260;20.816;2023-03-05T05:30:00;4.22;;;1.77;;
72929;SDS011;61073;54.260;20.816;2023-03-05T05:32:27;2.42;;;1.25;;
72929;SDS011;61073;54.260;20.816;2023-03-05T05:34:54;6.60;;;2.63;;
72929;SDS011;61073;54.260;20.816;2023-03-05T05:37:22;5.78;;;2.20;;
72929;SDS011;61073;54.260;20.816;2023-03-05T05:39:49;5.95;;;3.08;;
72929;SDS011;61073;54.260;20.816;2023-03-05T05:42:17;4.47;;;2.00;;
72929;SDS011;61073;54.260;20.816;2023-03-05T05:44:46;2.90;;;1.77;;
72929;SDS011;61073;54.260;20.816;2023-03-05T05:47:14;4.00;;;1.92;;
72929;SDS011;61073;54.260;20.816;2023-03-05T05:49:41;3.15;;;1.85;;
72929;SDS011;61073;54.260;20.816;2023-03-05T05:52:08;18.08;;;6.57;;
72929;SDS011;61073;54.260;20.816;2023-03-05T05:54:35;48.00;;;12.48;;
72929;SDS011;61073;54.260;20.816;2023-03-05T05:57:02;159.95;;;35.90;;
72929;SDS011;61073;54.260;20.816;2023-03-05T06:04:25;89.00;;;23.30;;
72929;SDS011;61073;54.260;20.816;2023-03-05T06:06:52;52.33;;;13.52;;
72929;SDS011;61073;54.260;20.816;2023-03-05T06:11:47;40.05;;;10.65;;
72929;SDS011;61073;54.260;20.816;2023-03-05T06:14:15;25.55;;;9.25;;
72929;SDS011;61073;54.260;20.816;2023-03-05T06:16:42;16.33;;;7.13;;
72929;SDS011;61073;54.260;20.816;2023-03-05T06:19:13;12.38;;;5.30;;
72929;SDS011;61073;54.260;20.816;2023-03-05T06:21:40;20.95;;;7.65;;
72929;SDS011;61073;54.260;20.816;2023-03-05T06:24:08;27.33;;;11.25;;
72929;SDS011;61073;54.260;20.816;2023-03-05T06:26:35;36.30;;;12.73;;
72929;SDS011;61073;54.260;20.816;2023-03-05T06:31:29;8.82;;;3.88;;
72929;SDS011;61073;54.260;20.816;2023-03-05T06:33:57;5.55;;;3.00;;
72929;SDS011;61073;54.260;20.816;2023-03-05T06:36:28;3.40;;;2.40;;
72929;SDS011;61073;54.260;20.816;2023-03-05T06:38:57;7.35;;;3.10;;
72929;SDS011;61073;54.260;20.816;2023-03-05T06:41:28;4.80;;;2.28;;
72929;SDS011;61073;54.260;20.816;2023-03-05T06:43:56;7.43;;;2.90;;
72929;SDS011;61073;54.260;20.816;2023-03-05T06:46:24;6.93;;;3.00;;
72929;SDS011;61073;54.260;20.816;2023-03-05T06:48:53;2.70;;;1.75;;
72929;SDS011;61073;54.260;20.816;2023-03-05T06:53:51;3.60;;;1.60;;
72929;SDS011;61073;54.260;20.816;2023-03-05T06:56:19;2.42;;;1.77;;
72929;SDS011;61073;54.260;20.816;2023-03-05T06:58:47;6.47;;;3.50;;
72929;SDS011;61073;54.260;20.816;2023-03-05T07:01:16;5.85;;;2.03;;
72929;SDS011;61073;54.260;20.816;2023-03-05T07:03:43;2.80;;;2.28;;
72929;SDS011;61073;54.260;20.816;2023-03-05T07:06:11;2.35;;;1.83;;
72929;SDS011;61073;54.260;20.816;2023-03-05T07:08:38;3.40;;;1.58;;
72929;SDS011;61073;54.260;20.816;2023-03-05T07:11:15;7.10;;;1.60;;
72929;SDS011;61073;54.260;20.816;2023-03-05T07:13:43;7.57;;;2.40;;
72929;SDS011;61073;54.260;20.816;2023-03-05T07:16:13;7.32;;;2.50;;
72929;SDS011;61073;54.260;20.816;2023-03-05T07:18:41;3.80;;;1.80;;
72929;SDS011;61073;54.260;20.816;2023-03-05T07:21:09;3.92;;;1.60;;
72929;SDS011;61073;54.260;20.816;2023-03-05T07:23:38;3.90;;;2.05;;
72929;SDS011;61073;54.260;20.816;2023-03-05T07:26:05;5.25;;;2.40;;
72929;SDS011;61073;54.260;20.816;2023-03-05T07:28:32;3.70;;;1.60;;
72929;SDS011;61073;54.260;20.816;2023-03-05T07:31:04;5.10;;;2.35;;
72929;SDS011;61073;54.260;20.816;2023-03-05T07:33:31;6.95;;;2.08;;
72929;SDS011;61073;54.260;20.816;2023-03-05T07:36:00;2.70;;;1.52;;
72929;SDS011;61073;54.260;20.816;2023-03-05T07:38:27;4.60;;;1.42;;
72929;SDS011;61073;54.260;20.816;2023-03-05T07:40:55;7.40;;;1.98;;
72929;SDS011;61073;54.260;20.816;2023-03-05T07:43:22;5.75;;;2.05;;
72929;SDS011;61073;54.260;20.816;2023-03-05T07:48:17;4.70;;;1.52;;
72929;SDS011;61073;54.260;20.816;2023-03-05T07:50:46;8.20;;;4.20;;
72929;SDS011;61073;54.260;20.816;2023-03-05T07:53:13;13.05;;;4.78;;
72929;SDS011;61073;54.260;20.816;2023-03-05T07:55:41;19.08;;;7.20;;
72929;SDS011;61073;54.260;20.816;2023-03-05T07:58:09;3.38;;;2.25;;
72929;SDS011;61073;54.260;20.816;2023-03-05T08:00:37;10.23;;;3.25;;
72929;SDS011;61073;54.260;20.816;2023-03-05T08:03:04;5.93;;;3.20;;
72929;SDS011;61073;54.260;20.816;2023-03-05T08:05:31;6.65;;;4.55;;
72929;SDS011;61073;54.260;20.816;2023-03-05T08:07:58;9.38;;;3.10;;
72929;SDS011;61073;54.260;20.816;2023-03-05T08:10:26;4.15;;;2.03;;
72929;SDS011;61073;54.260;20.816;2023-03-05T08:15:20;35.15;;;10.45;;
72929;SDS011;61073;54.260;20.816;2023-03-05T08:17:47;7.45;;;3.55;;
72929;SDS011;61073;54.260;20.816;2023-03-05T08:20:14;9.18;;;1.90;;
72929;SDS011;61073;54.260;20.816;2023-03-05T08:22:41;5.32;;;2.65;;
72929;SDS011;61073;54.260;20.816;2023-03-05T08:27:40;9.82;;;4.53;;
72929;SDS011;61073;54.260;20.816;2023-03-05T08:30:09;25.63;;;9.40;;
72929;SDS011;61073;54.260;20.816;2023-03-05T08:32:37;3.80;;;2.05;;
72929;SDS011;61073;54.260;20.816;2023-03-05T08:35:04;2.60;;;1.45;;
72929;SDS011;61073;54.260;20.816;2023-03-05T08:37:32;2.85;;;2.42;;
72929;SDS011;61073;54.260;20.816;2023-03-05T08:39:59;2.85;;;2.20;;
72929;SDS011;61073;54.260;20.816;2023-03-05T08:42:26;5.10;;;2.92;;
72929;SDS011;61073;54.260;20.816;2023-03-05T08:44:53;48.67;;;14.75;;
72929;SDS011;61073;54.260;20.816;2023-03-05T08:47:20;73.55;;;29.17;;
72929;SDS011;61073;54.260;20.816;2023-03-05T08:49:50;191.35;;;61.05;;
72929;SDS011;61073;54.260;20.816;2023-03-05T08:52:20;75.07;;;25.77;;
72929;SDS011;61073;54.260;20.816;2023-03-05T08:54:48;13.00;;;7.35;;
72929;SDS011;61073;54.260;20.816;2023-03-05T08:57:15;18.38;;;6.10;;
72929;SDS011;61073;54.260;20.816;2023-03-05T08:59:42;34.40;;;17.38;;
72929;SDS011;61073;54.260;20.816;2023-03-05T09:02:12;102.10;;;30.77;;
72929;SDS011;61073;54.260;20.816;2023-03-05T09:07:07;22.20;;;8.57;;
72929;SDS011;61073;54.260;20.816;2023-03-05T09:09:35;14.40;;;5.70;;
72929;SDS011;61073;54.260;20.816;2023-03-05T09:12:02;28.08;;;11.73;;
72929;SDS011;61073;54.260;20.816;2023-03-05T09:14:29;19.15;;;8.93;;
72929;SDS011;61073;54.260;20.816;2023-03-05T09:16:56;53.00;;;19.42;;
72929;SDS011;61073;54.260;20.816;2023-03-05T09:19:23;23.17;;;8.00;;
72929;SDS011;61073;54.260;20.816;2023-03-05T09:21:52;69.22;;;15.57;;
72929;SDS011;61073;54.260;20.816;2023-03-05T09:24:22;11.13;;;3.45;;
72929;SDS011;61073;54.260;20.816;2023-03-05T09:26:50;3.50;;;2.22;;
72929;SDS011;61073;54.260;20.816;2023-03-05T09:29:17;9.80;;;5.43;;
72929;SDS011;61073;54.260;20.816;2023-03-05T09:31:44;32.10;;;6.90;;
72929;SDS011;61073;54.260;20.816;2023-03-05T09:34:13;3.85;;;2.30;;
72929;SDS011;61073;54.260;20.816;2023-03-05T09:36:40;7.95;;;3.88;;
72929;SDS011;61073;54.260;20.816;2023-03-05T09:39:08;22.48;;;7.03;;
72929;SDS011;61073;54.260;20.816;2023-03-05T09:52:00;4.18;;;2.13;;
72929;SDS011;61073;54.260;20.816;2023-03-05T09:54:31;3.50;;;1.83;;
72929;SDS011;61073;54.260;20.816;2023-03-05T09:57:01;1.58;;;1.13;;
72929;SDS011;61073;54.260;20.816;2023-03-05T09:59:42;2.95;;;1.33;;
72929;SDS011;61073;54.260;20.816;2023-03-05T10:02:16;6.22;;;3.28;;
72929;SDS011;61073;54.260;20.816;2023-03-05T10:04:47;116.40;;;26.88;;
72929;SDS011;61073;54.260;20.816;2023-03-05T10:09:58;30.60;;;7.45;;
72929;SDS011;61073;54.260;20.816;2023-03-05T10:12:32;41.85;;;10.18;;
72929;SDS011;61073;54.260;20.816;2023-03-05T10:15:08;35.35;;;9.55;;
72929;SDS011;61073;54.260;20.816;2023-03-05T10:56:24;36.53;;;14.07;;
72929;SDS011;61073;54.260;20.816;2023-03-05T10:58:52;38.28;;;16.40;;
72929;SDS011;61073;54.260;20.816;2023-03-05T11:01:21;89.28;;;30.08;;
72929;SDS011;61073;54.260;20.816;2023-03-05T11:06:51;14.68;;;5.97;;
72929;SDS011;61073;54.260;20.816;2023-03-05T11:11:38;33.50;;;12.93;;
72929;SDS011;61073;54.260;20.816;2023-03-05T11:14:08;13.85;;;6.03;;
72929;SDS011;61073;54.260;20.816;2023-03-05T11:16:49;21.42;;;10.02;;
72929;SDS011;61073;54.260;20.816;2023-03-05T11:19:34;19.05;;;9.48;;
72929;SDS011;61073;54.260;20.816;2023-03-05T11:22:23;11.85;;;5.85;;
72929;SDS011;61073;54.260;20.816;2023-03-05T11:34:54;9.27;;;3.83;;
72929;SDS011;61073;54.260;20.816;2023-03-05T11:37:26;6.40;;;3.45;;
72929;SDS011;61073;54.260;20.816;2023-03-05T11:42:38;50.85;;;21.77;;
72929;SDS011;61073;54.260;20.816;2023-03-05T11:45:06;47.47;;;18.58;;
72929;SDS011;61073;54.260;20.816;2023-03-05T11:50:27;54.83;;;15.82;;
72929;SDS011;61073;54.260;20.816;2023-03-05T11:52:59;104.03;;;35.67;;
72929;SDS011;61073;54.260;20.816;2023-03-05T12:00:44;15.73;;;6.63;;
72929;SDS011;61073;54.260;20.816;2023-03-05T12:03:16;43.63;;;12.85;;
72929;SDS011;61073;54.260;20.816;2023-03-05T12:05:46;50.53;;;19.08;;
72929;SDS011;61073;54.260;20.816;2023-03-05T12:08:17;64.70;;;20.55;;
72929;SDS011;61073;54.260;20.816;2023-03-05T12:10:46;73.75;;;29.73;;
72929;SDS011;61073;54.260;20.816;2023-03-05T12:26:24;40.42;;;18.00;;
72929;SDS011;61073;54.260;20.816;2023-03-05T12:29:11;18.92;;;9.27;;
72929;SDS011;61073;54.260;20.816;2023-03-05T12:31:52;13.88;;;7.43;;
72929;SDS011;61073;54.260;20.816;2023-03-05T12:37:03;49.13;;;17.63;;
72929;SDS011;61073;54.260;20.816;2023-03-05T12:47:41;52.40;;;17.45;;
72929;SDS011;61073;54.260;20.816;2023-03-05T13:00:45;14.20;;;4.47;;
72929;SDS011;61073;54.260;20.816;2023-03-05T13:03:22;13.00;;;2.97;;
72929;SDS011;61073;54.260;20.816;2023-03-05T13:05:51;3.47;;;1.58;;
72929;SDS011;61073;54.260;20.816;2023-03-05T13:10:53;21.05;;;5.40;;
72929;SDS011;61073;54.260;20.816;2023-03-05T13:13:21;32.58;;;7.50;;
72929;SDS011;61073;54.260;20.816;2023-03-05T13:15:49;29.58;;;7.13;;
72929;SDS011;61073;54.260;20.816;2023-03-05T13:18:20;10.82;;;3.95;;
72929;SDS011;61073;54.260;20.816;2023-03-05T13:20:58;4.43;;;1.98;;
72929;SDS011;61073;54.260;20.816;2023-03-05T13:23:27;9.23;;;4.22;;
72929;SDS011;61073;54.260;20.816;2023-03-05T13:28:28;44.33;;;15.48;;
72929;SDS011;61073;54.260;20.816;2023-03-05T13:30:56;17.38;;;6.22;;
72929;SDS011;61073;54.260;20.816;2023-03-05T13:33:25;95.00;;;31.73;;
72929;SDS011;61073;54.260;20.816;2023-03-05T13:35:52;81.20;;;30.50;;
72929;SDS011;61073;54.260;20.816;2023-03-05T13:41:07;110.30;;;38.22;;
72929;SDS011;61073;54.260;20.816;2023-03-05T13:43:40;86.60;;;31.30;;
72929;SDS011;61073;54.260;20.816;2023-03-05T13:46:08;67.68;;;23.48;;
72929;SDS011;61073;54.260;20.816;2023-03-05T13:48:35;22.98;;;7.65;;
72929;SDS011;61073;54.260;20.816;2023-03-05T13:51:02;42.30;;;12.82;;
72929;SDS011;61073;54.260;20.816;2023-03-05T13:53:34;25.25;;;7.57;;
72929;SDS011;61073;54.260;20.816;2023-03-05T13:56:03;13.63;;;4.93;;
72929;SDS011;61073;54.260;20.816;2023-03-05T14:03:41;9.50;;;4.03;;
72929;SDS011;61073;54.260;20.816;2023-03-05T14:06:08;12.60;;;6.63;;
72929;SDS011;61073;54.260;20.816;2023-03-05T14:08:36;13.38;;;5.15;;
72929;SDS011;61073;54.260;20.816;2023-03-05T14:11:11;9.38;;;2.85;;
72929;SDS011;61073;54.260;20.816;2023-03-05T14:13:38;24.85;;;7.20;;
72929;SDS011;61073;54.260;20.816;2023-03-05T14:16:13;14.63;;;4.50;;
72929;SDS011;61073;54.260;20.816;2023-03-05T14:19:00;14.77;;;4.28;;
72929;SDS011;61073;54.260;20.816;2023-03-05T14:24:12;21.00;;;6.63;;
72929;SDS011;61073;54.260;20.816;2023-03-05T14:26:40;17.00;;;4.68;;
72929;SDS011;61073;54.260;20.816;2023-03-05T14:29:13;14.18;;;5.43;;
72929;SDS011;61073;54.260;20.816;2023-03-05T14:34:32;23.70;;;6.70;;
72929;SDS011;61073;54.260;20.816;2023-03-05T14:37:04;23.13;;;7.40;;
72929;SDS011;61073;54.260;20.816;2023-03-05T14:45:09;31.55;;;10.27;;
72929;SDS011;61073;54.260;20.816;2023-03-05T14:47:37;41.53;;;13.05;;
72929;SDS011;61073;54.260;20.816;2023-03-05T14:50:05;13.88;;;4.13;;
72929;SDS011;61073;54.260;20.816;2023-03-05T14:52:32;12.68;;;4.65;;
72929;SDS011;61073;54.260;20.816;2023-03-05T14:55:00;17.80;;;5.72;;
72929;SDS011;61073;54.260;20.816;2023-03-05T14:57:28;12.88;;;4.88;;
72929;SDS011;61073;54.260;20.816;2023-03-05T14:59:57;15.60;;;2.97;;
72929;SDS011;61073;54.260;20.816;2023-03-05T15:02:24;9.13;;;2.75;;
72929;SDS011;61073;54.260;20.816;2023-03-05T15:04:52;7.40;;;2.72;;
72929;SDS011;61073;54.260;20.816;2023-03-05T15:07:21;6.05;;;2.05;;
72929;SDS011;61073;54.260;20.816;2023-03-05T15:09:49;9.10;;;3.92;;
72929;SDS011;61073;54.260;20.816;2023-03-05T15:12:16;9.25;;;4.20;;
72929;SDS011;61073;54.260;20.816;2023-03-05T15:14:43;35.67;;;13.40;;
72929;SDS011;61073;54.260;20.816;2023-03-05T15:17:15;22.58;;;9.52;;
72929;SDS011;61073;54.260;20.816;2023-03-05T15:19:45;48.83;;;16.92;;
72929;SDS011;61073;54.260;20.816;2023-03-05T15:22:13;41.70;;;21.98;;
72929;SDS011;61073;54.260;20.816;2023-03-05T15:24:40;21.35;;;8.45;;
72929;SDS011;61073;54.260;20.816;2023-03-05T15:27:07;11.27;;;4.00;;
72929;SDS011;61073;54.260;20.816;2023-03-05T15:29:34;16.20;;;6.22;;
72929;SDS011;61073;54.260;20.816;2023-03-05T15:32:01;36.45;;;14.18;;
72929;SDS011;61073;54.260;20.816;2023-03-05T15:34:30;52.70;;;17.08;;
72929;SDS011;61073;54.260;20.816;2023-03-05T15:36:59;108.95;;;36.45;;
72929;SDS011;61073;54.260;20.816;2023-03-05T15:39:26;133.95;;;46.97;;
72929;SDS011;61073;54.260;20.816;2023-03-05T15:41:53;166.10;;;53.70;;
72929;SDS011;61073;54.260;20.816;2023-03-05T15:44:21;121.07;;;43.15;;
72929;SDS011;61073;54.260;20.816;2023-03-05T15:46:49;107.28;;;37.55;;
72929;SDS011;61073;54.260;20.816;2023-03-05T15:49:16;44.50;;;18.13;;
72929;SDS011;61073;54.260;20.816;2023-03-05T15:51:43;135.43;;;45.78;;
72929;SDS011;61073;54.260;20.816;2023-03-05T15:54:10;69.95;;;23.63;;
72929;SDS011;61073;54.260;20.816;2023-03-05T15:56:38;110.05;;;30.40;;
72929;SDS011;61073;54.260;20.816;2023-03-05T15:59:06;121.93;;;36.47;;
72929;SDS011;61073;54.260;20.816;2023-03-05T16:01:35;77.55;;;28.50;;
72929;SDS011;61073;54.260;20.816;2023-03-05T16:04:03;69.03;;;29.38;;
72929;SDS011;61073;54.260;20.816;2023-03-05T16:06:31;43.10;;;16.63;;
72929;SDS011;61073;54.260;20.816;2023-03-05T16:09:00;258.20;;;60.25;;
72929;SDS011;61073;54.260;20.816;2023-03-05T16:11:29;315.17;;;79.35;;
72929;SDS011;61073;54.260;20.816;2023-03-05T16:16:25;436.30;;;113.13;;
72929;SDS011;61073;54.260;20.816;2023-03-05T16:18:52;423.45;;;114.75;;
72929;SDS011;61073;54.260;20.816;2023-03-05T16:21:20;607.40;;;172.50;;
72929;SDS011;61073;54.260;20.816;2023-03-05T16:23:47;1030.93;;;329.08;;
72929;SDS011;61073;54.260;20.816;2023-03-05T16:26:15;521.25;;;148.05;;
72929;SDS011;61073;54.260;20.816;2023-03-05T16:28:42;336.55;;;82.15;;
72929;SDS011;61073;54.260;20.816;2023-03-05T16:31:09;479.77;;;122.82;;
72929;SDS011;61073;54.260;20.816;2023-03-05T16:33:36;474.75;;;124.15;;
72929;SDS011;61073;54.260;20.816;2023-03-05T16:36:22;707.47;;;211.57;;
72929;SDS011;61073;54.260;20.816;2023-03-05T16:38:51;431.95;;;111.28;;
72929;SDS011;61073;54.260;20.816;2023-03-05T16:41:19;346.45;;;89.07;;
72929;SDS011;61073;54.260;20.816;2023-03-05T16:43:49;319.75;;;74.65;;
72929;SDS011;61073;54.260;20.816;2023-03-05T16:46:19;351.33;;;88.10;;
72929;SDS011;61073;54.260;20.816;2023-03-05T16:48:46;422.45;;;136.00;;
72929;SDS011;61073;54.260;20.816;2023-03-05T16:51:13;201.03;;;69.87;;
72929;SDS011;61073;54.260;20.816;2023-03-05T16:53:40;233.95;;;89.07;;
72929;SDS011;61073;54.260;20.816;2023-03-05T16:56:08;120.13;;;40.00;;
72929;SDS011;61073;54.260;20.816;2023-03-05T16:58:36;136.27;;;42.90;;
72929;SDS011;61073;54.260;20.816;2023-03-05T17:10:51;110.13;;;37.45;;
72929;SDS011;61073;54.260;20.816;2023-03-05T17:15:46;81.22;;;22.17;;
72929;SDS011;61073;54.260;20.816;2023-03-05T17:18:13;32.05;;;9.98;;
72929;SDS011;61073;54.260;20.816;2023-03-05T17:20:40;23.30;;;7.20;;
72929;SDS011;61073;54.260;20.816;2023-03-05T17:23:07;135.93;;;33.20;;
72929;SDS011;61073;54.260;20.816;2023-03-05T17:25:35;93.07;;;24.20;;
72929;SDS011;61073;54.260;20.816;2023-03-05T17:28:02;37.75;;;13.23;;
72929;SDS011;61073;54.260;20.816;2023-03-05T17:30:29;24.45;;;8.23;;
72929;SDS011;61073;54.260;20.816;2023-03-05T17:32:58;16.73;;;5.30;;
72929;SDS011;61073;54.260;20.816;2023-03-05T17:35:25;24.05;;;7.75;;
72929;SDS011;61073;54.260;20.816;2023-03-05T17:37:52;16.52;;;6.03;;
72929;SDS011;61073;54.260;20.816;2023-03-05T17:40:21;12.10;;;4.55;;
72929;SDS011;61073;54.260;20.816;2023-03-05T17:42:49;13.43;;;4.03;;
72929;SDS011;61073;54.260;20.816;2023-03-05T17:45:16;13.45;;;3.60;;
72929;SDS011;61073;54.260;20.816;2023-03-05T17:47:44;11.18;;;4.70;;
72929;SDS011;61073;54.260;20.816;2023-03-05T17:50:12;15.35;;;5.45;;